Time;durP1;ratioP1;P1;durP2;ratioP2;P2;SDS_P1;SDS_P2;PMS_P1;PMS_P2;Temp;Humidity;BMP_temperature;BMP_pressure;BME280_temperature;BME280_humidity;BME280_pressure;Samples;Min_cycle;Max_cycle;Signal;HPM_P1;HPM_P2
2024/04/15 00:01:52;;;;;;;7.88;2.90;;;;;;;14.99;63.04;97916.66;5360271;26;20037;-73
2024/04/15 00:04:17;;;;;;;6.40;2.60;;;;;;;14.97;63.02;97908.00;5362891;26;20011;-73
2024/04/15 00:06:42;;;;;;;5.07;2.70;;;;;;;14.92;63.25;97878.19;5381135;26;20015;-72
2024/04/15 00:09:08;;;;;;;7.97;2.70;;;;;;;14.87;63.19;97880.13;5402022;26;19996;-73
2024/04/15 00:11:33;;;;;;;8.43;2.72;;;;;;;14.92;63.19;97867.34;5364284;26;20043;-73
2024/04/15 00:13:58;;;;;;;6.25;3.05;;;;;;;14.96;62.75;97862.97;5303954;26;20015;-73
2024/04/15 00:16:24;;;;;;;7.05;2.80;;;;;;;14.87;62.48;97848.41;5338459;26;20003;-72
2024/04/15 00:18:49;;;;;;;4.05;3.05;;;;;;;14.83;63.01;97851.94;5377004;26;20034;-72
2024/04/15 00:21:15;;;;;;;4.43;2.97;;;;;;;14.87;63.29;97847.56;5351756;26;20481;-72
2024/04/15 00:23:40;;;;;;;5.75;3.25;;;;;;;14.87;63.52;97832.13;5384594;26;20014;-71
2024/04/15 00:26:05;;;;;;;6.90;2.80;;;;;;;14.87;64.22;97826.69;5355375;26;20012;-72
2024/04/15 00:28:31;;;;;;;4.53;3.10;;;;;;;14.81;64.54;97838.69;5343416;26;20039;-71
2024/04/15 00:30:56;;;;;;;6.50;2.95;;;;;;;14.71;63.86;97811.63;5363180;26;19999;-71
2024/04/15 00:33:22;;;;;;;5.70;2.70;;;;;;;14.72;63.97;97813.25;5352054;26;20633;-72
2024/04/15 00:35:47;;;;;;;5.30;3.03;;;;;;;14.68;63.54;97823.00;5400881;26;20014;-71
2024/04/15 00:38:13;;;;;;;6.47;2.90;;;;;;;14.70;63.33;97815.44;5353174;26;20001;-72
2024/04/15 00:40:38;;;;;;;7.43;2.70;;;;;;;14.51;63.84;97795.50;5396898;26;19995;-72
2024/04/15 00:43:04;;;;;;;4.85;2.92;;;;;;;14.56;64.05;97808.19;5355636;26;20336;-72
2024/04/15 00:45:31;;;;;;;6.03;2.78;;;;;;;14.54;64.54;97800.31;5392397;26;20014;-73
2024/04/15 00:47:57;;;;;;;5.60;2.75;;;;;;;14.54;65.02;97795.72;5397633;26;20026;-72
2024/04/15 00:50:24;;;;;;;5.07;3.10;;;;;;;14.49;64.88;97792.25;5342269;26;20472;-73
2024/04/15 00:52:49;;;;;;;5.63;2.90;;;;;;;14.41;65.82;97779.28;5334622;26;20354;-74
2024/04/15 00:55:15;;;;;;;5.57;3.10;;;;;;;14.42;65.66;97775.47;5368666;26;20011;-73
2024/04/15 00:57:43;;;;;;;5.68;2.70;;;;;;;14.57;65.02;97797.06;5403128;26;20011;-73
2024/04/15 01:00:12;;;;;;;4.60;3.13;;;;;;;14.55;65.44;97801.97;5395022;26;20094;-73
2024/04/15 01:02:38;;;;;;;5.75;3.05;;;;;;;14.51;65.83;97811.75;5322880;26;20459;-74
2024/04/15 01:05:04;;;;;;;4.90;3.22;;;;;;;14.47;65.80;97821.50;5407593;26;19999;-73
2024/04/15 01:07:30;;;;;;;5.40;3.40;;;;;;;14.27;66.68;97813.44;5351341;26;20071;-74
2024/04/15 01:09:56;;;;;;;7.68;3.20;;;;;;;14.34;67.23;97795.03;5358531;26;20008;-74
2024/04/15 01:12:22;;;;;;;8.40;3.63;;;;;;;14.32;67.52;97792.59;5363742;26;20024;-75
2024/04/15 01:14:47;;;;;;;7.30;3.60;;;;;;;14.34;66.88;97805.84;5354535;26;20005;-74
2024/04/15 01:17:12;;;;;;;4.68;3.10;;;;;;;14.48;66.79;97801.44;5319277;26;19997;-74
2024/04/15 01:19:38;;;;;;;4.10;3.58;;;;;;;14.40;66.92;97766.81;5393122;26;20004;-74
2024/04/15 01:22:05;;;;;;;7.30;3.10;;;;;;;14.48;66.15;97768.94;5339698;26;20076;-73
2024/04/15 01:24:31;;;;;;;8.25;3.45;;;;;;;14.43;66.01;97758.13;5331533;26;19997;-74
2024/04/15 01:26:56;;;;;;;5.47;3.58;;;;;;;14.39;65.24;97771.44;5365083;26;20015;-74
2024/04/15 01:29:23;;;;;;;6.40;3.33;;;;;;;14.40;65.14;97786.59;5324576;26;20347;-74
2024/04/15 01:31:48;;;;;;;6.88;3.60;;;;;;;14.38;64.95;97768.97;5366377;26;20052;-74
2024/04/15 01:34:15;;;;;;;5.13;3.10;;;;;;;14.40;65.58;97766.81;5382221;26;20019;-74
2024/04/15 01:36:40;;;;;;;4.10;3.53;;;;;;;14.32;65.87;97756.56;5340434;26;20026;-74
2024/04/15 01:39:05;;;;;;;6.30;3.83;;;;;;;14.31;65.78;97769.28;5380641;26;20005;-74
2024/04/15 01:41:31;;;;;;;5.60;3.58;;;;;;;14.10;65.85;97751.47;5344943;26;20007;-74
2024/04/15 01:43:56;;;;;;;5.50;3.67;;;;;;;14.14;66.77;97784.25;5351744;26;20008;-72
2024/04/15 01:46:22;;;;;;;5.55;3.40;;;;;;;14.13;66.31;97812.41;5373517;26;20004;-71
2024/04/15 01:48:47;;;;;;;6.47;3.90;;;;;;;14.09;66.33;97808.63;5345833;26;20045;-71
2024/04/15 01:51:12;;;;;;;8.48;4.30;;;;;;;14.12;65.87;97808.09;5332741;26;20004;-71
2024/04/15 01:53:38;;;;;;;9.75;4.30;;;;;;;14.17;66.10;97799.94;5363258;26;20000;-72
2024/04/15 01:56:05;;;;;;;7.53;4.20;;;;;;;14.18;65.47;97810.50;5339743;26;20077;-71
2024/04/15 01:58:31;;;;;;;4.60;3.75;;;;;;;14.16;65.74;97801.84;5343162;26;20393;-71
2024/04/15 02:01:04;;;;;;;5.97;3.85;;;;;;;14.19;66.07;97805.91;5303560;26;20008;-70
2024/04/15 02:03:30;;;;;;;6.43;3.92;;;;;;;14.13;66.13;97793.44;5383156;26;20012;-73
2024/04/15 02:05:55;;;;;;;6.35;4.30;;;;;;;14.20;66.44;97794.78;5332173;26;20461;-71
2024/04/15 02:08:20;;;;;;;5.32;4.18;;;;;;;14.19;66.58;97795.06;5346631;26;20042;-71
2024/04/15 02:10:46;;;;;;;5.35;3.90;;;;;;;14.15;66.27;97815.66;5393928;26;20477;-71
2024/04/15 02:13:11;;;;;;;5.97;3.97;;;;;;;14.02;66.19;97808.13;5379983;26;20016;-71
2024/04/15 02:15:37;;;;;;;8.27;4.55;;;;;;;13.85;66.90;97803.03;5392728;26;20456;-74
2024/04/15 02:18:02;;;;;;;7.80;4.50;;;;;;;13.72;66.88;97820.63;5334489;26;20317;-72
2024/04/15 02:20:27;;;;;;;7.22;4.05;;;;;;;13.79;66.54;97831.97;5401280;26;20010;-73
2024/04/15 02:22:55;;;;;;;7.32;4.60;;;;;;;13.82;66.05;97820.63;5298886;26;20016;-75
2024/04/15 02:25:21;;;;;;;9.13;4.57;;;;;;;13.86;66.17;97802.72;5350415;26;20001;-75
2024/04/15 02:27:46;;;;;;;5.72;4.55;;;;;;;13.86;65.51;97781.06;5358055;26;20345;-73
2024/04/15 02:30:11;;;;;;;8.45;4.57;;;;;;;13.87;64.98;97790.00;5346374;26;20008;-74
2024/04/15 02:32:38;;;;;;;7.13;4.93;;;;;;;13.84;65.16;97790.56;5326469;26;20011;-74
2024/04/15 02:35:04;;;;;;;6.25;4.50;;;;;;;13.81;65.33;97791.94;5364169;26;20004;-73
2024/04/15 02:37:29;;;;;;;5.20;4.30;;;;;;;13.75;64.91;97770.56;5357592;26;20016;-73
2024/04/15 02:39:55;;;;;;;6.97;4.50;;;;;;;13.91;65.35;97780.25;5330833;26;20452;-73
2024/04/15 02:42:20;;;;;;;6.55;4.70;;;;;;;13.84;65.22;97764.31;5377859;26;20001;-73
2024/04/15 02:44:46;;;;;;;7.15;4.38;;;;;;;13.83;64.97;97762.69;5339885;26;20099;-73
2024/04/15 02:47:11;;;;;;;8.38;5.00;;;;;;;13.80;65.21;97765.94;5408533;26;20014;-73
2024/04/15 02:49:36;;;;;;;7.60;5.55;;;;;;;13.81;65.65;97753.22;5390543;26;20010;-72
2024/04/15 02:52:02;;;;;;;7.03;5.43;;;;;;;13.75;65.80;97738.91;5411720;26;20018;-73
2024/04/15 02:54:27;;;;;;;6.90;4.90;;;;;;;13.56;66.69;97713.50;5323042;26;20000;-74
2024/04/15 02:56:53;;;;;;;6.50;4.80;;;;;;;13.70;66.60;97736.19;5409096;26;20068;-73
2024/04/15 02:59:18;;;;;;;7.10;5.38;;;;;;;13.55;66.89;97728.16;5385024;26;20004;-74
2024/04/15 03:01:43;;;;;;;6.45;4.88;;;;;;;13.52;67.11;97723.28;5396089;26;20068;-74
2024/04/15 03:04:09;;;;;;;8.00;5.15;;;;;;;13.47;67.30;97727.88;5356286;26;20011;-73
2024/04/15 03:06:34;;;;;;;6.28;4.60;;;;;;;13.56;66.73;97732.44;5369663;26;20083;-73
2024/04/15 03:09:00;;;;;;;5.18;4.63;;;;;;;13.59;66.60;97733.81;5360088;26;20537;-72
2024/04/15 03:11:25;;;;;;;7.78;5.72;;;;;;;13.62;66.61;97733.25;5381007;26;20036;-72
2024/04/15 03:13:52;;;;;;;8.65;5.00;;;;;;;13.59;66.40;97733.81;5357337;26;20343;-71
2024/04/15 03:16:17;;;;;;;9.27;4.72;;;;;;;13.56;66.53;97735.16;5414068;26;20000;-71
2024/04/15 03:18:47;;;;;;;8.05;4.97;;;;;;;13.57;66.19;97731.38;5396605;26;20347;-73
2024/04/15 03:21:12;;;;;;;7.35;4.97;;;;;;;13.60;66.23;97741.66;5323169;26;20011;-75
2024/04/15 03:23:38;;;;;;;6.82;4.82;;;;;;;13.53;66.26;97735.72;5335509;26;19997;-73
2024/04/15 03:26:03;;;;;;;5.63;4.78;;;;;;;13.45;66.16;97744.38;5400297;26;20129;-72
2024/04/15 03:28:29;;;;;;;7.72;5.05;;;;;;;13.23;66.17;97727.69;5322464;21;20369;-73
2024/04/15 03:30:54;;;;;;;5.95;5.20;;;;;;;13.29;66.13;97731.97;5275682;27;20004;-73
2024/04/15 03:33:19;;;;;;;8.13;4.95;;;;;;;13.27;66.57;97731.44;5279495;27;20378;-75
2024/04/15 03:35:45;;;;;;;8.25;5.20;;;;;;;13.23;66.45;97733.09;5272099;27;19993;-74
2024/04/15 03:38:11;;;;;;;8.52;5.82;;;;;;;13.13;67.26;97719.56;5247014;27;20014;-75
2024/04/15 03:40:36;;;;;;;6.60;5.20;;;;;;;13.14;66.98;97715.75;5263689;27;19998;-76
2024/04/15 03:43:04;;;;;;;7.25;5.25;;;;;;;13.19;66.82;97734.69;5247218;27;19998;-76
2024/04/15 03:45:30;;;;;;;8.00;5.30;;;;;;;13.23;66.61;97730.38;5276460;27;20466;-75
2024/04/15 03:47:55;;;;;;;6.10;4.95;;;;;;;13.27;66.51;97720.63;5276424;27;20018;-75
2024/04/15 03:50:23;;;;;;;7.88;5.65;;;;;;;13.12;66.82;97707.13;5276129;27;20006;-76
2024/04/15 03:52:51;;;;;;;11.13;5.85;;;;;;;13.15;66.90;97723.63;5275353;27;20394;-76
2024/04/15 03:55:16;;;;;;;9.63;5.78;;;;;;;13.01;66.41;97705.47;5274967;27;20006;-76
2024/04/15 03:57:42;;;;;;;6.45;5.15;;;;;;;13.10;66.89;97714.69;5247784;27;20473;-76
2024/04/15 04:00:10;;;;;;;6.88;5.03;;;;;;;13.10;67.03;97714.69;5247849;27;20013;-76
2024/04/15 04:02:35;;;;;;;6.35;5.63;;;;;;;13.10;67.10;97703.88;5274599;27;20002;-73
2024/04/15 04:05:01;;;;;;;8.77;5.88;;;;;;;13.09;66.94;97680.66;5266272;27;20029;-76
2024/04/15 04:07:26;;;;;;;6.28;5.45;;;;;;;13.05;67.12;97674.09;5275868;27;20006;-74
2024/04/15 04:09:51;;;;;;;6.15;5.50;;;;;;;13.09;67.17;97675.25;5277876;27;20010;-74
2024/04/15 04:12:17;;;;;;;7.43;5.65;;;;;;;13.09;67.36;97680.66;5268426;27;20023;-73
2024/04/15 04:14:43;;;;;;;7.50;5.63;;;;;;;12.94;67.83;97672.50;5255796;27;20006;-74
2024/04/15 04:17:08;;;;;;;7.18;5.82;;;;;;;12.86;68.45;97648.75;5271134;27;19998;-75
2024/04/15 04:19:34;;;;;;;8.30;6.28;;;;;;;12.87;68.26;97661.16;5251844;27;20489;-75
2024/04/15 04:21:59;;;;;;;7.55;6.20;;;;;;;12.97;67.92;97677.38;5272967;27;20094;-74
2024/04/15 04:24:24;;;;;;;8.77;6.30;;;;;;;12.84;68.10;97650.88;5221286;27;19999;-75
2024/04/15 04:26:50;;;;;;;8.93;6.35;;;;;;;12.82;68.42;97658.47;5274028;27;20020;-75
2024/04/15 04:29:15;;;;;;;7.75;6.03;;;;;;;12.81;68.63;97667.66;5249082;27;20018;-75
2024/04/15 04:31:42;;;;;;;7.65;6.15;;;;;;;12.85;68.88;97684.97;5246089;27;20010;-75
2024/04/15 04:34:07;;;;;;;10.40;6.70;;;;;;;12.69;68.50;97686.03;5236401;27;20006;-74
2024/04/15 04:36:33;;;;;;;8.68;6.38;;;;;;;12.64;69.03;97708.47;5262086;27;20015;-75
2024/04/15 04:38:58;;;;;;;8.23;6.10;;;;;;;12.44;69.01;97706.53;5247279;27;20003;-74
2024/04/15 04:41:23;;;;;;;13.75;6.93;;;;;;;12.30;70.59;97704.63;5257089;27;20033;-74
2024/04/15 04:43:49;;;;;;;8.85;7.05;;;;;;;12.35;70.51;97697.34;5266077;27;20042;-75
2024/04/15 04:46:14;;;;;;;8.88;6.90;;;;;;;12.27;70.31;97700.59;5275544;27;20140;-75
2024/04/15 04:48:40;;;;;;;7.82;6.32;;;;;;;12.27;70.20;97711.41;5281003;27;19998;-75
2024/04/15 04:51:10;;;;;;;8.15;6.60;;;;;;;12.27;70.26;97711.41;5288827;27;20339;-73
2024/04/15 04:53:36;;;;;;;7.90;6.25;;;;;;;12.22;70.31;97711.38;5234654;27;20447;-74
2024/04/15 04:56:14;;;;;;;8.45;6.22;;;;;;;12.12;70.38;97703.25;5274854;27;20474;-74
2024/04/15 04:58:41;;;;;;;7.32;6.05;;;;;;;12.23;70.55;97699.47;5239503;27;20345;-74
2024/04/15 05:01:16;;;;;;;6.55;5.78;;;;;;;12.27;70.05;97716.78;5273710;27;20002;-76
2024/04/15 05:03:43;;;;;;;7.30;5.95;;;;;;;12.29;70.10;97709.22;5275238;27;20062;-76
2024/04/15 05:06:10;;;;;;;6.68;5.38;;;;;;;12.29;69.73;97700.31;5271973;27;20007;-77
2024/04/15 05:08:35;;;;;;;6.65;5.65;;;;;;;12.32;69.31;97714.06;5247044;27;19998;-77
2024/04/15 05:11:01;;;;;;;8.60;5.18;;;;;;;12.47;68.53;97716.00;5273946;27;20045;-77
2024/04/15 05:13:27;;;;;;;7.93;5.32;;;;;;;12.40;68.85;97693.84;5275347;27;20017;-77
2024/04/15 05:16:01;;;;;;;9.18;5.50;;;;;;;12.59;68.60;97708.47;5275435;27;19999;-77
2024/04/15 05:18:27;;;;;;;9.25;5.55;;;;;;;12.69;68.94;97719.28;5246932;27;20003;-77
2024/04/15 05:20:52;;;;;;;9.45;5.97;;;;;;;12.66;68.67;97719.00;5246885;27;20006;-76
2024/04/15 05:23:17;;;;;;;7.15;5.68;;;;;;;12.72;68.53;97717.94;5276823;27;20002;-78
2024/04/15 05:25:43;;;;;;;7.80;5.57;;;;;;;12.79;68.63;97735.47;5276600;27;20018;-76
2024/04/15 05:28:08;;;;;;;6.40;5.78;;;;;;;12.66;68.55;97709.00;5246480;27;19999;-75
2024/04/15 05:30:34;;;;;;;6.50;5.80;;;;;;;12.91;68.44;97738.72;5218469;27;20007;-76
2024/04/15 05:32:59;;;;;;;6.18;5.30;;;;;;;12.93;68.73;97730.34;5269874;27;20010;-77
2024/04/15 05:35:24;;;;;;;7.47;5.68;;;;;;;12.94;68.88;97734.69;5274148;27;20010;-76
2024/04/15 05:37:50;;;;;;;6.57;5.28;;;;;;;12.93;69.08;97741.16;5276194;27;20016;-77
2024/04/15 05:40:15;;;;;;;8.18;5.22;;;;;;;12.78;68.09;97708.72;5274190;27;20472;-76
2024/04/15 05:42:40;;;;;;;7.05;5.20;;;;;;;12.86;68.87;97748.75;5273071;27;20042;-76
2024/04/15 05:45:06;;;;;;;7.57;5.68;;;;;;;12.65;68.71;97701.19;5274474;27;20021;-76
2024/04/15 05:47:31;;;;;;;7.57;5.32;;;;;;;12.87;68.53;97736.84;5275229;27;20063;-77
2024/04/15 05:49:57;;;;;;;7.15;5.30;;;;;;;12.84;68.16;97731.97;5274754;27;20002;-76
2024/04/15 05:52:22;;;;;;;7.47;5.30;;;;;;;12.90;68.23;97726.31;5273463;27;20009;-74
2024/04/15 05:54:47;;;;;;;6.18;5.53;;;;;;;12.93;67.50;97714.13;5275483;27;20010;-74
2024/04/15 05:57:13;;;;;;;8.38;5.63;;;;;;;13.05;67.75;97733.59;5273814;27;20350;-75
2024/04/15 05:59:38;;;;;;;8.60;5.05;;;;;;;13.03;67.24;97733.88;5245841;27;20006;-77
2024/04/15 06:02:04;;;;;;;6.22;5.10;;;;;;;13.08;67.29;97738.50;5272382;27;20370;-76
2024/04/15 06:04:29;;;;;;;8.57;5.22;;;;;;;12.97;66.82;97699.00;5273951;27;20006;-76
2024/04/15 06:06:54;;;;;;;6.90;5.55;;;;;;;13.15;66.83;97722.81;5274344;27;20013;-76
2024/04/15 06:09:20;;;;;;;9.38;5.47;;;;;;;13.05;67.03;97696.59;5273748;27;20045;-76
2024/04/15 06:11:46;;;;;;;6.80;5.20;;;;;;;13.18;66.96;97718.75;5272856;27;20002;-79
2024/04/15 06:14:11;;;;;;;8.93;5.35;;;;;;;13.27;67.07;97731.44;5273874;27;20018;-76
2024/04/15 06:16:36;;;;;;;8.35;5.13;;;;;;;13.27;67.28;97736.03;5246400;27;20623;-77
2024/04/15 06:19:02;;;;;;;8.40;5.45;;;;;;;13.25;66.98;97711.16;5275445;27;20021;-76
2024/04/15 06:21:27;;;;;;;6.88;5.55;;;;;;;13.30;67.07;97739.03;5276234;27;20006;-76
2024/04/15 06:23:53;;;;;;;7.88;5.35;;;;;;;13.26;67.11;97740.63;5248663;27;19998;-76
2024/04/15 06:26:18;;;;;;;7.45;5.13;;;;;;;13.21;67.62;97747.94;5276971;27;20006;-76
2024/04/15 06:28:44;;;;;;;8.10;5.55;;;;;;;13.21;67.32;97751.44;5248496;27;20018;-76
2024/04/15 06:31:09;;;;;;;7.68;4.95;;;;;;;12.88;68.37;97750.06;5284471;27;20021;-76
2024/04/15 06:33:35;;;;;;;8.75;5.00;;;;;;;12.84;68.97;97759.81;5276862;27;20449;-76
2024/04/15 06:36:00;;;;;;;7.88;5.30;;;;;;;13.03;68.43;97765.50;5276889;27;20014;-76
2024/04/15 06:38:25;;;;;;;9.38;5.68;;;;;;;12.97;68.23;97770.09;5248679;27;20017;-76
2024/04/15 06:40:51;;;;;;;9.20;5.60;;;;;;;13.00;68.62;97774.13;5248834;27;20013;-74
2024/04/15 06:43:16;;;;;;;10.65;5.72;;;;;;;12.97;68.74;97759.28;5289331;27;20520;-76
2024/04/15 06:45:42;;;;;;;9.20;5.72;;;;;;;13.08;68.96;97766.34;5277084;27;20007;-76
2024/04/15 06:48:07;;;;;;;12.77;6.60;;;;;;;12.93;69.23;97752.78;5220504;27;20002;-76
2024/04/15 06:50:32;;;;;;;8.70;6.18;;;;;;;12.96;69.51;97756.84;5248359;27;20339;-77
2024/04/15 06:53:03;;;;;;;9.10;6.38;;;;;;;12.99;70.09;97767.94;5275676;27;20002;-76
2024/04/15 06:55:30;;;;;;;8.27;6.28;;;;;;;12.85;70.84;97750.63;5281648;27;20006;-76
2024/04/15 06:57:55;;;;;;;7.97;6.00;;;;;;;12.76;70.50;97733.34;5248396;27;20022;-76
2024/04/15 07:00:21;;;;;;;9.30;6.72;;;;;;;12.83;70.57;97763.59;5274331;27;20002;-76
2024/04/15 07:02:46;;;;;;;10.95;6.72;;;;;;;12.67;71.24;97736.84;5246699;27;20052;-76
2024/04/15 07:05:13;;;;;;;10.73;7.03;;;;;;;12.92;71.37;97755.75;5248165;27;20358;-76
2024/04/15 07:07:38;;;;;;;10.88;7.32;;;;;;;12.70;71.73;97717.38;5248575;27;20572;-76
2024/04/15 07:10:06;;;;;;;8.05;6.65;;;;;;;12.95;71.72;97760.63;5276617;27;19998;-76
2024/04/15 07:12:31;;;;;;;9.88;7.43;;;;;;;12.79;72.49;97723.88;5275282;27;20341;-76
2024/04/15 07:14:56;;;;;;;12.05;7.43;;;;;;;12.99;72.73;97761.72;5265708;27;20019;-74
2024/04/15 07:17:22;;;;;;;9.15;7.25;;;;;;;12.93;72.94;97746.56;5286941;27;20058;-76
2024/04/15 07:19:47;;;;;;;10.88;7.95;;;;;;;12.97;73.39;97736.84;5278364;27;20020;-75
2024/04/15 07:22:14;;;;;;;10.48;6.90;;;;;;;13.04;73.35;97742.78;5234711;27;20002;-76
2024/04/15 07:24:39;;;;;;;10.10;7.05;;;;;;;12.91;73.33;97722.50;5276572;27;20483;-76
2024/04/15 07:27:05;;;;;;;10.02;7.47;;;;;;;12.91;74.12;97743.31;5278331;27;20021;-76
2024/04/15 07:29:30;;;;;;;10.38;7.63;;;;;;;12.91;73.86;97759.53;5275656;27;20022;-76
2024/04/15 07:31:55;;;;;;;13.20;7.72;;;;;;;12.82;73.41;97737.66;5276314;27;20010;-75
2024/04/15 07:34:21;;;;;;;10.40;7.47;;;;;;;12.97;73.60;97764.69;5276547;27;20006;-76
2024/04/15 07:36:46;;;;;;;9.68;8.18;;;;;;;12.80;74.29;97749.81;5275000;27;20013;-76
2024/04/15 07:39:12;;;;;;;10.68;7.50;;;;;;;12.84;74.15;97765.22;5275319;27;20002;-76
2024/04/15 07:41:37;;;;;;;11.45;8.95;;;;;;;12.70;74.24;97747.91;5274907;27;20006;-75
2024/04/15 07:44:03;;;;;;;13.93;8.43;;;;;;;12.80;74.32;97764.13;5275431;27;20085;-76
2024/04/15 07:46:28;;;;;;;16.13;8.93;;;;;;;12.83;74.62;97754.69;5275982;27;20002;-76
2024/04/15 07:48:53;;;;;;;10.73;8.68;;;;;;;12.88;73.67;97750.06;5247816;27;20142;-75
2024/04/15 07:51:21;;;;;;;9.90;8.07;;;;;;;12.90;74.36;97741.72;5274784;27;19998;-76
2024/04/15 07:53:47;;;;;;;11.10;8.90;;;;;;;12.93;75.22;97741.16;5275804;27;20003;-76
2024/04/15 07:56:12;;;;;;;12.10;9.63;;;;;;;13.09;75.32;97748.22;5247561;27;20493;-76
2024/04/15 07:58:37;;;;;;;12.57;9.05;;;;;;;12.92;76.17;97751.19;5275671;27;20003;-76
2024/04/15 08:01:03;;;;;;;11.52;9.13;;;;;;;12.96;75.82;97724.41;5260405;27;20018;-76
2024/04/15 08:03:28;;;;;;;12.98;9.55;;;;;;;13.19;75.55;97726.56;5262001;27;20013;-76
2024/04/15 08:05:53;;;;;;;10.23;9.15;;;;;;;13.00;75.88;97680.34;5276191;27;20018;-76
2024/04/15 08:08:19;;;;;;;15.52;10.25;;;;;;;13.21;74.89;97727.09;5275559;27;20006;-76
2024/04/15 08:10:44;;;;;;;11.93;9.43;;;;;;;13.16;75.44;97738.75;5247472;27;20006;-76
2024/04/15 08:13:10;;;;;;;12.38;10.10;;;;;;;12.90;75.77;97687.66;5274459;27;20014;-76
2024/04/15 08:15:35;;;;;;;19.58;12.15;;;;;;;13.20;76.53;97720.09;5275678;27;20007;-76
2024/04/15 08:18:02;;;;;;;12.82;10.15;;;;;;;13.28;76.82;97722.22;5291961;27;20002;-76
2024/04/15 08:20:27;;;;;;;14.43;10.27;;;;;;;13.32;77.33;97736.03;5259336;27;20019;-76
2024/04/15 08:22:53;;;;;;;14.73;10.45;;;;;;;13.36;77.27;97737.09;5210568;27;19998;-76
2024/04/15 08:25:18;;;;;;;14.70;11.15;;;;;;;13.37;77.81;97741.44;5275593;27;20002;-76
2024/04/15 08:27:44;;;;;;;14.05;11.18;;;;;;;13.36;78.13;97737.91;5246974;27;20013;-76
2024/04/15 08:30:09;;;;;;;14.13;11.50;;;;;;;13.48;77.82;97730.31;5275520;27;20357;-76
2024/04/15 08:32:35;;;;;;;13.15;11.77;;;;;;;13.45;77.50;97728.16;5274013;27;20007;-74
2024/04/15 08:35:01;;;;;;;14.18;10.20;;;;;;;13.43;77.42;97706.00;5275301;27;20002;-75
2024/04/15 08:37:26;;;;;;;14.38;12.02;;;;;;;13.60;77.63;97698.38;5275258;27;19998;-75
2024/04/15 08:39:52;;;;;;;11.82;9.88;;;;;;;13.77;76.93;97714.25;5275266;27;20358;-76
2024/04/15 08:42:35;;;;;;;14.32;10.75;;;;;;;13.72;76.24;97723.19;5287710;27;20058;-76
2024/04/15 08:45:06;;;;;;;17.77;11.38;;;;;;;13.78;76.81;97722.13;5275385;27;20346;-76
2024/04/15 08:47:34;;;;;;;18.38;12.02;;;;;;;13.95;76.74;97704.72;5263025;27;20003;-76
2024/04/15 08:49:59;;;;;;;13.75;9.85;;;;;;;14.01;76.10;97690.06;5275057;27;20410;-76
2024/04/15 08:52:25;;;;;;;13.25;9.93;;;;;;;14.08;75.96;97699.50;5245540;27;20006;-76
2024/04/15 08:54:50;;;;;;;14.60;10.38;;;;;;;14.20;76.04;97696.47;5247025;27;20339;-75
2024/04/15 08:57:16;;;;;;;19.92;11.35;;;;;;;14.15;75.77;97705.44;5274857;27;20002;-76
2024/04/15 08:59:44;;;;;;;14.73;8.93;;;;;;;13.98;75.33;97696.06;5246851;27;20003;-76
2024/04/15 09:02:14;;;;;;;12.68;8.93;;;;;;;14.05;73.81;97674.91;5274023;27;20016;-75
2024/04/15 09:04:40;;;;;;;13.02;8.95;;;;;;;13.97;74.26;97659.22;5257764;27;20010;-76
2024/04/15 09:07:06;;;;;;;12.68;8.13;;;;;;;14.17;74.52;97661.81;5241559;27;20022;-75
2024/04/15 09:09:31;;;;;;;16.25;10.57;;;;;;;14.38;74.44;97661.44;5274929;27;20006;-75
2024/04/15 09:11:56;;;;;;;17.27;10.77;;;;;;;14.42;72.86;97653.56;5273625;27;20345;-76
2024/04/15 09:14:22;;;;;;;34.08;18.10;;;;;;;14.60;72.61;97636.63;5246961;27;20002;-76
2024/04/15 09:16:47;;;;;;;9.48;7.45;;;;;;;14.93;73.32;97643.91;5218692;27;20012;-76
2024/04/15 09:19:13;;;;;;;12.20;8.52;;;;;;;14.80;71.22;97608.50;5274950;27;20139;-75
2024/04/15 09:21:38;;;;;;;10.68;7.18;;;;;;;14.53;70.48;97587.34;5245724;27;20357;-76
2024/04/15 09:24:05;;;;;;;9.82;7.63;;;;;;;14.58;69.00;97632.56;5274540;27;20056;-76
2024/04/15 09:26:30;;;;;;;11.65;7.82;;;;;;;14.56;70.03;97619.31;5246443;27;20007;-76
2024/04/15 09:28:55;;;;;;;8.85;7.30;;;;;;;14.80;69.83;97609.31;5323687;21;20006;-74
2024/04/15 09:31:21;;;;;;;9.80;6.68;;;;;;;15.09;69.01;97618.25;5275101;27;20009;-75
2024/04/15 09:33:48;;;;;;;11.18;7.35;;;;;;;14.97;68.41;97596.16;5274753;27;20002;-74
2024/04/15 09:36:14;;;;;;;12.30;7.18;;;;;;;14.95;68.51;97595.63;5274418;27;20013;-74
2024/04/15 09:38:39;;;;;;;9.15;6.90;;;;;;;14.85;67.26;97633.69;5246871;27;20038;-75
2024/04/15 09:41:06;;;;;;;10.63;7.07;;;;;;;14.71;67.33;97637.31;5255637;27;20066;-75
2024/04/15 09:43:31;;;;;;;10.32;7.55;;;;;;;14.62;68.32;97629.00;5269404;27;20544;-74
2024/04/15 09:45:57;;;;;;;11.05;7.75;;;;;;;14.85;69.04;97622.84;5220266;27;20003;-74
2024/04/15 09:48:24;;;;;;;9.63;8.05;;;;;;;15.06;69.27;97590.91;5277122;27;20014;-75
2024/04/15 09:51:05;;;;;;;10.68;8.00;;;;;;;15.16;67.08;97591.59;5241498;27;20005;-75
2024/04/15 09:53:37;;;;;;;11.50;8.05;;;;;;;15.18;65.51;97616.53;5300606;27;20001;-75
2024/04/15 09:56:08;;;;;;;9.45;7.90;;;;;;;15.22;65.76;97598.59;5284107;27;20018;-76
2024/04/15 09:58:35;;;;;;;16.80;9.55;;;;;;;15.61;66.71;97603.03;5294684;27;20003;-76
2024/04/15 10:01:01;;;;;;;8.93;7.63;;;;;;;15.87;65.41;97602.41;5279331;27;20002;-75
2024/04/15 10:03:30;;;;;;;11.73;8.35;;;;;;;15.41;64.38;97581.53;5279451;27;20014;-75
2024/04/15 10:06:00;;;;;;;13.52;8.43;;;;;;;15.54;64.17;97564.59;5250821;27;20075;-76
2024/04/15 10:08:26;;;;;;;10.05;8.68;;;;;;;15.58;64.11;97581.91;5264044;27;20013;-75
2024/04/15 10:10:52;;;;;;;12.02;7.93;;;;;;;15.27;63.73;97569.78;5293206;27;20001;-74
2024/04/15 10:13:18;;;;;;;8.65;7.75;;;;;;;15.63;64.79;97579.13;5276388;27;20007;-76
2024/04/15 10:15:44;;;;;;;14.65;8.27;;;;;;;15.71;63.81;97583.88;5278056;27;20006;-75
2024/04/15 10:18:17;;;;;;;9.85;7.93;;;;;;;15.39;64.66;97562.84;5297504;26;20018;-74
2024/04/15 10:20:45;;;;;;;10.70;7.53;;;;;;;15.67;63.21;97577.44;5279204;27;20002;-74
2024/04/15 10:23:14;;;;;;;13.02;7.38;;;;;;;15.59;64.37;97564.53;5256029;27;20068;-73
2024/04/15 10:25:41;;;;;;;10.48;7.60;;;;;;;15.69;63.44;97556.22;5284777;27;20005;-74
2024/04/15 10:28:08;;;;;;;12.27;7.13;;;;;;;15.87;63.31;97550.00;5258491;27;20009;-75
2024/04/15 10:30:36;;;;;;;10.80;7.43;;;;;;;16.13;63.42;97544.97;5277305;27;20064;-75
2024/04/15 10:33:07;;;;;;;11.95;7.38;;;;;;;16.34;62.27;97538.13;5260170;27;19998;-74
2024/04/15 10:35:34;;;;;;;11.07;7.28;;;;;;;16.42;62.42;97534.72;5258935;27;20007;-74
2024/04/15 10:38:01;;;;;;;8.88;6.72;;;;;;;16.28;62.88;97523.81;5269611;27;20007;-74
2024/04/15 10:40:28;;;;;;;9.35;7.25;;;;;;;16.26;61.16;97504.31;5262933;27;19999;-74
2024/04/15 10:42:53;;;;;;;11.00;7.13;;;;;;;16.20;61.30;97515.53;5283030;27;20010;-74
2024/04/15 10:45:20;;;;;;;12.00;7.32;;;;;;;15.78;61.88;97483.88;5251355;27;20081;-74
2024/04/15 10:47:48;;;;;;;10.43;7.30;;;;;;;15.79;61.76;97501.78;5278163;27;20014;-74
2024/04/15 10:50:15;;;;;;;9.00;7.03;;;;;;;15.61;60.78;97489.03;5248794;27;20009;-74
2024/04/15 10:52:40;;;;;;;8.35;6.75;;;;;;;15.83;61.54;97503.63;5275306;27;20015;-74
2024/04/15 10:55:07;;;;;;;9.27;6.90;;;;;;;15.87;62.25;97465.81;5250196;27;20006;-74
2024/04/15 10:57:32;;;;;;;8.77;6.50;;;;;;;16.36;61.72;97487.81;5260262;26;20009;-75
2024/04/15 10:59:58;;;;;;;10.18;6.75;;;;;;;16.48;63.33;97498.19;5252782;27;20106;-74
2024/04/15 11:02:24;;;;;;;7.57;6.45;;;;;;;16.98;61.96;97485.59;5247112;27;20002;-75
2024/04/15 11:04:50;;;;;;;8.02;6.30;;;;;;;16.95;60.68;97483.47;5276468;27;20450;-75
2024/04/15 11:07:19;;;;;;;9.95;6.80;;;;;;;16.88;60.33;97480.34;5276317;27;20002;-75
2024/04/15 11:09:45;;;;;;;7.32;5.90;;;;;;;17.08;59.29;97447.31;5248631;27;20006;-74
2024/04/15 11:12:11;;;;;;;7.82;6.60;;;;;;;17.18;59.55;97466.13;5274272;27;20440;-75
2024/04/15 11:14:36;;;;;;;9.77;6.60;;;;;;;17.31;59.34;97451.69;5276302;27;20006;-74
2024/04/15 11:17:04;;;;;;;11.00;6.78;;;;;;;17.55;59.31;97460.41;5248320;27;20002;-74
2024/04/15 11:19:29;;;;;;;9.32;6.30;;;;;;;17.55;57.69;97446.81;5248170;27;20105;-74
2024/04/15 11:22:05;;;;;;;9.55;6.53;;;;;;;17.80;59.63;97454.41;5233714;27;20809;-75
2024/04/15 11:24:33;;;;;;;8.10;6.43;;;;;;;17.31;57.74;97434.56;5275886;27;20342;-75